createdAt,value
2023-10-28T00:03:14.446Z,525
2023-10-28T00:08:43.931Z,519
2023-10-28T00:14:14.469Z,524
2023-10-28T00:19:45.258Z,526
2023-10-28T00:25:15.469Z,521
2023-10-28T00:30:45.935Z,522
2023-10-28T00:36:16.430Z,527
2023-10-28T00:41:45.931Z,525
2023-10-28T00:47:16.386Z,528
2023-10-28T00:52:46.939Z,530
2023-10-28T00:58:16.390Z,535
2023-10-28T01:03:46.871Z,534
2023-10-28T01:09:16.348Z,533
2023-10-28T01:14:46.824Z,527
2023-10-28T01:20:17.397Z,527
2023-10-28T01:25:48.039Z,530
2023-10-28T01:31:18.527Z,529
2023-10-28T01:36:48.935Z,529
2023-10-28T01:42:19.520Z,531
2023-10-28T01:47:50.017Z,529
2023-10-28T01:53:20.630Z,523
2023-10-28T01:58:51.133Z,524
2023-10-28T02:04:21.541Z,529
2023-10-28T02:09:52.155Z,527
2023-10-28T02:15:22.727Z,530
2023-10-28T02:20:53.162Z,519
2023-10-28T02:26:23.775Z,517
2023-10-28T02:31:54.325Z,518
2023-10-28T02:37:24.870Z,509
2023-10-28T02:42:55.311Z,512
2023-10-28T02:48:25.832Z,513
2023-10-28T02:53:56.434Z,511
2023-10-28T02:59:26.892Z,521
2023-10-28T03:04:57.423Z,513
2023-10-28T03:10:27.982Z,517
2023-10-28T03:15:58.526Z,515
2023-10-28T03:21:28.964Z,513
2023-10-28T03:26:59.576Z,510
2023-10-28T03:32:30.106Z,516
2023-10-28T03:37:59.618Z,511
2023-10-28T03:43:30.049Z,515
2023-10-28T03:49:00.539Z,515
2023-10-28T03:54:31.228Z,513
2023-10-28T04:00:01.690Z,510
2023-10-28T04:05:32.177Z,514
2023-10-28T04:11:01.720Z,512
2023-10-28T04:16:31.300Z,509
2023-10-28T04:22:01.874Z,509
2023-10-28T04:27:32.613Z,509
2023-10-28T04:33:03.137Z,512
2023-10-28T04:38:33.604Z,516
2023-10-28T04:44:04.268Z,516
2023-10-28T04:49:34.690Z,512
2023-10-28T04:55:05.205Z,508
2023-10-28T05:00:35.751Z,504
2023-10-28T05:06:06.249Z,505
2023-10-28T05:11:35.718Z,505
2023-10-28T05:17:06.228Z,509
2023-10-28T05:22:36.667Z,507
2023-10-28T05:28:07.347Z,507
2023-10-28T05:33:37.798Z,503
2023-10-28T05:39:08.408Z,510
2023-10-28T05:44:38.922Z,513
2023-10-28T05:50:09.492Z,514
2023-10-28T05:55:39.976Z,517
2023-10-28T06:01:10.486Z,513
2023-10-28T06:06:40.926Z,509
2023-10-28T06:12:11.533Z,506
2023-10-28T06:17:42.031Z,512
2023-10-28T06:23:12.494Z,515
2023-10-28T06:28:42.086Z,516
2023-10-28T06:34:12.556Z,513
2023-10-28T06:39:43.042Z,517
2023-10-28T06:45:13.651Z,513
2023-10-28T06:50:44.144Z,518
2023-10-28T06:56:14.728Z,514
2023-10-28T07:01:45.201Z,516
2023-10-28T07:07:15.810Z,514
2023-10-28T07:12:45.249Z,513
2023-10-28T07:18:15.783Z,514
2023-10-28T07:23:46.200Z,514
2023-10-28T07:29:16.808Z,515
2023-10-28T07:34:46.300Z,518
2023-10-28T07:40:16.772Z,516
2023-10-28T07:45:47.272Z,513
2023-10-28T07:51:16.813Z,515
2023-10-28T07:56:47.313Z,516
2023-10-28T08:02:17.835Z,514
2023-10-28T08:07:48.457Z,509
2023-10-28T08:13:18.841Z,516
2023-10-28T08:18:48.338Z,515
2023-10-28T08:24:18.801Z,516
2023-10-28T08:29:49.287Z,511
2023-10-28T08:35:20.034Z,509
2023-10-28T08:40:50.486Z,512
2023-10-28T08:46:20.082Z,508
2023-10-28T08:51:50.415Z,505
2023-10-28T08:57:21.038Z,507
2023-10-28T09:02:51.658Z,509
2023-10-28T09:08:21.170Z,513
2023-10-28T09:13:51.759Z,513
2023-10-28T09:19:22.587Z,510
2023-10-28T09:24:52.888Z,516
2023-10-28T09:30:23.361Z,513
2023-10-28T09:35:53.842Z,512
2023-10-28T09:41:24.517Z,512
2023-10-28T09:46:55.013Z,510
2023-10-28T09:52:25.429Z,511
2023-10-28T09:57:56.026Z,505
2023-10-28T10:03:26.524Z,506
2023-10-28T10:08:55.959Z,517
2023-10-28T10:14:26.447Z,507
2023-10-28T10:19:56.913Z,503
2023-10-28T10:25:27.682Z,506
2023-10-28T10:30:58.011Z,500
2023-10-28T10:36:28.484Z,496
2023-10-28T10:42:00.591Z,492
2023-10-28T10:47:29.617Z,497
2023-10-28T10:52:59.063Z,503
2023-10-28T10:58:29.519Z,506
2023-10-28T11:03:59.991Z,503
2023-10-28T11:09:29.497Z,508
2023-10-28T11:14:59.985Z,506
2023-10-28T11:20:30.664Z,510
2023-10-28T11:26:01.056Z,499
2023-10-28T11:31:31.532Z,488
2023-10-28T11:42:32.656Z,495
2023-10-28T11:48:03.201Z,504
2023-10-28T11:53:33.762Z,511
2023-10-28T11:59:04.255Z,510
2023-10-28T12:04:34.830Z,509
2023-10-28T12:10:05.332Z,514
2023-10-28T12:15:35.789Z,526
2023-10-28T12:21:06.378Z,527
2023-10-28T12:26:36.890Z,535
2023-10-28T12:32:07.474Z,545
2023-10-28T12:37:37.999Z,566
2023-10-28T12:43:08.483Z,575
2023-10-28T12:48:38.971Z,585
2023-10-28T12:54:09.597Z,593
2023-10-28T12:59:40.114Z,598
2023-10-28T13:05:10.800Z,609
2023-10-28T13:10:41.248Z,607
2023-10-28T13:16:11.741Z,624
2023-10-28T13:21:42.269Z,640
2023-10-28T13:27:12.747Z,642
2023-10-28T13:32:54.649Z,645
2023-10-28T13:38:13.845Z,645
2023-10-28T13:43:44.321Z,653
2023-10-28T13:49:15.838Z,649
2023-10-28T13:54:45.423Z,649
2023-10-28T14:00:15.899Z,645
2023-10-28T14:05:45.383Z,646
2023-10-28T14:11:15.885Z,662
2023-10-28T14:16:46.340Z,658
2023-10-28T14:22:15.832Z,656
2023-10-28T14:27:46.308Z,662
2023-10-28T14:33:15.818Z,655
2023-10-28T14:38:46.265Z,641
2023-10-28T14:44:16.768Z,633
2023-10-28T14:49:46.402Z,629
2023-10-28T14:55:16.854Z,625
2023-10-28T15:00:46.353Z,625
2023-10-28T15:06:16.791Z,622
2023-10-28T15:11:47.315Z,631
2023-10-28T15:17:16.871Z,636
2023-10-28T15:28:17.868Z,642
2023-10-28T15:33:48.377Z,646
2023-10-28T15:39:18.824Z,649
2023-10-28T15:44:48.491Z,654
2023-10-28T15:50:18.842Z,654
2023-10-28T15:55:49.297Z,653
2023-10-28T16:01:19.917Z,660
2023-10-28T16:06:50.350Z,663
2023-10-28T16:12:20.899Z,663
2023-10-28T16:17:50.452Z,666
2023-10-28T16:23:20.883Z,667
2023-10-28T16:34:20.875Z,726
2023-10-28T16:39:51.446Z,723
2023-10-28T16:45:22.040Z,747
2023-10-28T16:50:52.541Z,785
2023-10-28T16:56:23.056Z,829
2023-10-28T17:01:53.618Z,891
2023-10-28T17:07:24.124Z,929
2023-10-28T17:12:53.588Z,959
2023-10-28T17:18:24.132Z,985
2023-10-28T17:23:54.639Z,1019
2023-10-28T17:29:25.254Z,1063
2023-10-28T17:40:26.229Z,1090
2023-10-28T17:45:56.820Z,1115
2023-10-28T17:51:27.273Z,1148
2023-10-28T17:56:56.760Z,1211
2023-10-28T18:02:27.327Z,1239
2023-10-28T18:07:57.723Z,1272
2023-10-28T18:13:28.329Z,1305
2023-10-28T18:18:58.796Z,1341
2023-10-28T18:24:29.271Z,1338
2023-10-28T18:29:59.882Z,1348
2023-10-28T18:35:30.436Z,1370
2023-10-28T18:41:01.012Z,1387
2023-10-28T18:46:31.444Z,1413
2023-10-28T18:52:01.934Z,1426
2023-10-28T18:57:31.532Z,1439
2023-10-28T19:03:02.052Z,1438
2023-10-28T19:08:32.420Z,1471
2023-10-28T19:14:01.939Z,1494
2023-10-28T19:19:32.344Z,1519
2023-10-28T19:25:02.951Z,1540
2023-10-28T19:30:33.518Z,1452
2023-10-28T19:36:03.999Z,1443
2023-10-28T19:41:34.694Z,1407
2023-10-28T19:47:05.055Z,1386
2023-10-28T19:52:35.510Z,1374
2023-10-28T19:58:05.037Z,1348
2023-10-28T20:03:35.564Z,1313
2023-10-28T20:09:04.982Z,1307
2023-10-28T20:14:35.559Z,1294
2023-10-28T20:20:05.932Z,1277
2023-10-28T20:25:36.535Z,1240
2023-10-28T20:31:07.153Z,1240
2023-10-28T20:36:37.606Z,1236
2023-10-28T20:42:08.195Z,1225
2023-10-28T20:47:38.707Z,1222
2023-10-28T20:53:09.220Z,1208
2023-10-28T20:58:38.625Z,1181
2023-10-28T21:04:09.213Z,1173
2023-10-28T21:09:39.603Z,1169
2023-10-28T21:15:10.198Z,1171
2023-10-28T21:20:40.706Z,1155
2023-10-28T21:26:11.331Z,1148
2023-10-28T21:31:41.751Z,1148
2023-10-28T21:37:12.222Z,1130
2023-10-28T21:42:41.722Z,1125
2023-10-28T21:48:12.373Z,1110
2023-10-28T21:53:42.717Z,1087
2023-10-28T21:59:12.186Z,1081
2023-10-28T22:04:45.127Z,1079
2023-10-28T22:10:13.142Z,1071
2023-10-28T22:15:43.797Z,1079
2023-10-28T22:21:14.283Z,1069
2023-10-28T22:26:44.916Z,1062
2023-10-28T22:32:15.337Z,1054
2023-10-28T22:37:45.980Z,1048
2023-10-28T22:43:16.466Z,1049
2023-10-28T22:49:53.033Z,1029
2023-10-28T22:55:22.521Z,1022
2023-10-28T23:00:53.010Z,1013
2023-10-28T23:06:23.480Z,1005
2023-10-28T23:11:54.271Z,991
2023-10-28T23:17:24.576Z,995
2023-10-28T23:22:55.045Z,992
2023-10-28T23:28:25.603Z,987
2023-10-28T23:33:56.115Z,1003
2023-10-28T23:39:26.565Z,998
2023-10-28T23:44:57.226Z,996
2023-10-28T23:50:27.668Z,982
2023-10-28T23:55:58.331Z,973
